sensor_id;sensor_type;location;lat;lon;timestamp;temperature;humidity
64796;DHT22;51229;51.980;6.722;2022-09-09T00:01:40;13.50;99.90
64796;DHT22;51229;51.980;6.722;2022-09-09T00:04:27;13.50;99.90
64796;DHT22;51229;51.980;6.722;2022-09-09T00:18:44;13.70;99.90
64796;DHT22;51229;51.980;6.722;2022-09-09T00:21:17;13.70;99.90
64796;DHT22;51229;51.980;6.722;2022-09-09T00:23:56;13.90;99.90
64796;DHT22;51229;51.980;6.722;2022-09-09T00:29:35;13.60;99.90
64796;DHT22;51229;51.980;6.722;2022-09-09T00:32:19;13.80;99.90
64796;DHT22;51229;51.980;6.722;2022-09-09T00:34:56;13.70;99.90
64796;DHT22;51229;51.980;6.722;2022-09-09T00:37:25;13.80;99.90
64796;DHT22;51229;51.980;6.722;2022-09-09T00:39:53;13.50;99.90
64796;DHT22;51229;51.980;6.722;2022-09-09T00:42:25;13.70;99.90
64796;DHT22;51229;51.980;6.722;2022-09-09T00:47:46;13.90;99.90
64796;DHT22;51229;51.980;6.722;2022-09-09T00:53:05;13.70;99.90
64796;DHT22;51229;51.980;6.722;2022-09-09T00:55:56;13.70;99.90
64796;DHT22;51229;51.980;6.722;2022-09-09T00:58:25;13.20;99.90
64796;DHT22;51229;51.980;6.722;2022-09-09T01:01:03;12.80;99.90
64796;DHT22;51229;51.980;6.722;2022-09-09T01:06:16;13.20;99.90
64796;DHT22;51229;51.980;6.722;2022-09-09T01:11:52;13.50;99.90
64796;DHT22;51229;51.980;6.722;2022-09-09T01:14:48;13.40;99.90
64796;DHT22;51229;51.980;6.722;2022-09-09T01:17:36;12.50;99.90
64796;DHT22;51229;51.980;6.722;2022-09-09T01:20:23;12.60;99.90
64796;DHT22;51229;51.980;6.722;2022-09-09T01:23:11;13.10;99.90
64796;DHT22;51229;51.980;6.722;2022-09-09T01:28:36;12.90;99.90
64796;DHT22;51229;51.980;6.722;2022-09-09T01:31:09;12.70;99.90
64796;DHT22;51229;51.980;6.722;2022-09-09T01:33:42;13.00;99.90
64796;DHT22;51229;51.980;6.722;2022-09-09T01:36:32;13.50;99.90
64796;DHT22;51229;51.980;6.722;2022-09-09T01:39:00;13.60;99.90
64796;DHT22;51229;51.980;6.722;2022-09-09T01:41:27;13.60;99.90
64796;DHT22;51229;51.980;6.722;2022-09-09T01:44:03;13.20;99.90
64796;DHT22;51229;51.980;6.722;2022-09-09T01:46:31;12.80;99.90
64796;DHT22;51229;51.980;6.722;2022-09-09T01:48:59;12.90;99.90
64796;DHT22;51229;51.980;6.722;2022-09-09T01:51:27;13.30;99.90
64796;DHT22;51229;51.980;6.722;2022-09-09T01:53:57;13.20;99.90
64796;DHT22;51229;51.980;6.722;2022-09-09T01:56:37;13.10;99.90
64796;DHT22;51229;51.980;6.722;2022-09-09T02:02:09;13.30;99.90
64796;DHT22;51229;51.980;6.722;2022-09-09T02:04:47;13.50;99.90
64796;DHT22;51229;51.980;6.722;2022-09-09T02:10:29;13.30;99.90
64796;DHT22;51229;51.980;6.722;2022-09-09T02:13:14;13.30;99.90
64796;DHT22;51229;51.980;6.722;2022-09-09T02:16:10;13.20;99.90
64796;DHT22;51229;51.980;6.722;2022-09-09T02:18:42;13.10;99.90
64796;DHT22;51229;51.980;6.722;2022-09-09T02:21:13;13.00;99.90
64796;DHT22;51229;51.980;6.722;2022-09-09T02:23:41;13.20;99.90
64796;DHT22;51229;51.980;6.722;2022-09-09T02:26:12;13.30;99.90
64796;DHT22;51229;51.980;6.722;2022-09-09T02:28:41;13.20;99.90
64796;DHT22;51229;51.980;6.722;2022-09-09T02:31:07;12.90;99.90
64796;DHT22;51229;51.980;6.722;2022-09-09T02:33:51;13.00;99.90
64796;DHT22;51229;51.980;6.722;2022-09-09T02:36:19;12.80;99.90
64796;DHT22;51229;51.980;6.722;2022-09-09T02:38:47;12.90;99.90
64796;DHT22;51229;51.980;6.722;2022-09-09T02:41:20;12.70;99.90
64796;DHT22;51229;51.980;6.722;2022-09-09T02:43:48;12.80;99.90
64796;DHT22;51229;51.980;6.722;2022-09-09T02:46:39;12.90;99.90
64796;DHT22;51229;51.980;6.722;2022-09-09T02:52:08;12.60;99.90
64796;DHT22;51229;51.980;6.722;2022-09-09T02:54:38;12.30;99.90
64796;DHT22;51229;51.980;6.722;2022-09-09T02:57:11;12.10;99.90
64796;DHT22;51229;51.980;6.722;2022-09-09T02:59:39;12.00;99.90
64796;DHT22;51229;51.980;6.722;2022-09-09T03:02:05;12.10;99.90
64796;DHT22;51229;51.980;6.722;2022-09-09T03:04:32;12.30;99.90
64796;DHT22;51229;51.980;6.722;2022-09-09T03:06:58;12.30;99.90
64796;DHT22;51229;51.980;6.722;2022-09-09T03:09:24;12.40;99.90
64796;DHT22;51229;51.980;6.722;2022-09-09T03:11:52;12.40;99.90
64796;DHT22;51229;51.980;6.722;2022-09-09T03:14:18;12.70;99.90
64796;DHT22;51229;51.980;6.722;2022-09-09T03:16:47;12.50;99.90
64796;DHT22;51229;51.980;6.722;2022-09-09T03:19:14;12.70;99.90
64796;DHT22;51229;51.980;6.722;2022-09-09T03:21:40;12.90;99.90
64796;DHT22;51229;51.980;6.722;2022-09-09T03:24:06;12.60;99.90
64796;DHT22;51229;51.980;6.722;2022-09-09T03:26:32;12.70;99.90
64796;DHT22;51229;51.980;6.722;2022-09-09T03:28:59;12.90;99.90
64796;DHT22;51229;51.980;6.722;2022-09-09T03:31:26;12.60;99.90
64796;DHT22;51229;51.980;6.722;2022-09-09T03:33:57;12.70;99.90
64796;DHT22;51229;51.980;6.722;2022-09-09T03:36:25;12.20;99.90
64796;DHT22;51229;51.980;6.722;2022-09-09T03:38:52;12.50;99.90
64796;DHT22;51229;51.980;6.722;2022-09-09T03:41:18;12.10;99.90
64796;DHT22;51229;51.980;6.722;2022-09-09T03:43:44;11.80;99.90
64796;DHT22;51229;51.980;6.722;2022-09-09T03:46:10;12.00;99.90
64796;DHT22;51229;51.980;6.722;2022-09-09T03:48:36;11.90;99.90
64796;DHT22;51229;51.980;6.722;2022-09-09T03:51:04;11.90;99.90
64796;DHT22;51229;51.980;6.722;2022-09-09T03:53:31;12.10;99.90
64796;DHT22;51229;51.980;6.722;2022-09-09T03:55:57;12.10;99.90
64796;DHT22;51229;51.980;6.722;2022-09-09T03:58:27;12.10;99.90
64796;DHT22;51229;51.980;6.722;2022-09-09T04:03:25;12.00;99.90
64796;DHT22;51229;51.980;6.722;2022-09-09T04:05:52;11.90;99.90
64796;DHT22;51229;51.980;6.722;2022-09-09T04:08:19;12.30;99.90
64796;DHT22;51229;51.980;6.722;2022-09-09T04:10:49;12.40;99.90
64796;DHT22;51229;51.980;6.722;2022-09-09T04:13:17;12.40;99.90
64796;DHT22;51229;51.980;6.722;2022-09-09T04:15:48;12.10;99.90
64796;DHT22;51229;51.980;6.722;2022-09-09T04:18:15;12.00;99.90
64796;DHT22;51229;51.980;6.722;2022-09-09T04:20:41;12.50;99.90
64796;DHT22;51229;51.980;6.722;2022-09-09T04:23:09;12.60;99.90
64796;DHT22;51229;51.980;6.722;2022-09-09T04:25:34;12.40;99.90
64796;DHT22;51229;51.980;6.722;2022-09-09T04:28:00;12.50;99.90
64796;DHT22;51229;51.980;6.722;2022-09-09T04:30:27;12.60;99.90
64796;DHT22;51229;51.980;6.722;2022-09-09T04:32:53;12.60;99.90
64796;DHT22;51229;51.980;6.722;2022-09-09T04:35:19;12.60;99.90
64796;DHT22;51229;51.980;6.722;2022-09-09T04:37:46;12.50;99.90
64796;DHT22;51229;51.980;6.722;2022-09-09T04:40:11;12.20;99.90
64796;DHT22;51229;51.980;6.722;2022-09-09T04:42:38;12.30;99.90
64796;DHT22;51229;51.980;6.722;2022-09-09T04:45:05;12.50;99.90
64796;DHT22;51229;51.980;6.722;2022-09-09T04:47:32;12.50;99.90
64796;DHT22;51229;51.980;6.722;2022-09-09T04:49:58;12.50;99.90
64796;DHT22;51229;51.980;6.722;2022-09-09T04:52:25;12.60;99.90
64796;DHT22;51229;51.980;6.722;2022-09-09T04:54:51;12.60;99.90
64796;DHT22;51229;51.980;6.722;2022-09-09T04:57:19;12.20;99.90
64796;DHT22;51229;51.980;6.722;2022-09-09T04:59:46;12.20;99.90
64796;DHT22;51229;51.980;6.722;2022-09-09T05:02:14;12.20;99.90
64796;DHT22;51229;51.980;6.722;2022-09-09T05:04:39;12.30;99.90
64796;DHT22;51229;51.980;6.722;2022-09-09T05:07:06;12.10;99.90
64796;DHT22;51229;51.980;6.722;2022-09-09T05:09:32;12.20;99.90
64796;DHT22;51229;51.980;6.722;2022-09-09T05:11:59;12.00;99.90
64796;DHT22;51229;51.980;6.722;2022-09-09T05:14:30;12.00;99.90
64796;DHT22;51229;51.980;6.722;2022-09-09T05:16:55;11.90;99.90
64796;DHT22;51229;51.980;6.722;2022-09-09T05:19:22;11.80;99.90
64796;DHT22;51229;51.980;6.722;2022-09-09T05:21:48;11.90;99.90
64796;DHT22;51229;51.980;6.722;2022-09-09T05:24:18;12.00;99.90
64796;DHT22;51229;51.980;6.722;2022-09-09T05:26:46;11.80;99.90
64796;DHT22;51229;51.980;6.722;2022-09-09T05:29:11;12.10;99.90
64796;DHT22;51229;51.980;6.722;2022-09-09T05:31:37;11.90;99.90
64796;DHT22;51229;51.980;6.722;2022-09-09T05:34:08;11.80;99.90
64796;DHT22;51229;51.980;6.722;2022-09-09T05:36:34;11.80;99.90
64796;DHT22;51229;51.980;6.722;2022-09-09T05:39:00;12.00;99.90
64796;DHT22;51229;51.980;6.722;2022-09-09T05:41:27;11.60;99.90
64796;DHT22;51229;51.980;6.722;2022-09-09T05:43:56;12.10;99.90
64796;DHT22;51229;51.980;6.722;2022-09-09T05:46:23;12.10;99.90
64796;DHT22;51229;51.980;6.722;2022-09-09T05:48:52;12.20;99.90
64796;DHT22;51229;51.980;6.722;2022-09-09T05:51:23;12.30;99.90
64796;DHT22;51229;51.980;6.722;2022-09-09T05:53:50;12.00;99.90
64796;DHT22;51229;51.980;6.722;2022-09-09T05:56:19;11.80;99.90
64796;DHT22;51229;51.980;6.722;2022-09-09T05:58:46;12.00;99.90
64796;DHT22;51229;51.980;6.722;2022-09-09T06:01:23;12.20;99.90
64796;DHT22;51229;51.980;6.722;2022-09-09T06:03:50;12.10;99.90
64796;DHT22;51229;51.980;6.722;2022-09-09T06:06:18;12.30;99.90
64796;DHT22;51229;51.980;6.722;2022-09-09T06:08:47;12.10;99.90
64796;DHT22;51229;51.980;6.722;2022-09-09T06:11:21;12.00;99.90
64796;DHT22;51229;51.980;6.722;2022-09-09T06:13:48;12.10;99.90
64796;DHT22;51229;51.980;6.722;2022-09-09T06:16:17;12.50;99.90
64796;DHT22;51229;51.980;6.722;2022-09-09T06:18:43;12.20;99.90
64796;DHT22;51229;51.980;6.722;2022-09-09T06:21:16;12.30;99.90
64796;DHT22;51229;51.980;6.722;2022-09-09T06:23:42;12.50;99.90
64796;DHT22;51229;51.980;6.722;2022-09-09T06:26:14;12.70;99.90
64796;DHT22;51229;51.980;6.722;2022-09-09T06:28:41;12.40;99.90
64796;DHT22;51229;51.980;6.722;2022-09-09T06:31:11;12.40;99.90
64796;DHT22;51229;51.980;6.722;2022-09-09T06:33:39;12.40;99.90
64796;DHT22;51229;51.980;6.722;2022-09-09T06:36:28;12.50;99.90
64796;DHT22;51229;51.980;6.722;2022-09-09T06:38:54;12.30;99.90
64796;DHT22;51229;51.980;6.722;2022-09-09T06:41:22;12.30;99.90
64796;DHT22;51229;51.980;6.722;2022-09-09T06:43:48;12.60;99.90
64796;DHT22;51229;51.980;6.722;2022-09-09T06:46:20;12.60;99.90
64796;DHT22;51229;51.980;6.722;2022-09-09T06:48:49;13.20;99.90
64796;DHT22;51229;51.980;6.722;2022-09-09T06:51:17;13.70;99.90
64796;DHT22;51229;51.980;6.722;2022-09-09T06:53:45;13.80;99.90
64796;DHT22;51229;51.980;6.722;2022-09-09T06:56:22;13.30;99.90
64796;DHT22;51229;51.980;6.722;2022-09-09T06:58:51;13.00;99.90
64796;DHT22;51229;51.980;6.722;2022-09-09T07:01:28;12.90;99.90
64796;DHT22;51229;51.980;6.722;2022-09-09T07:03:56;12.80;99.90
64796;DHT22;51229;51.980;6.722;2022-09-09T07:06:30;12.80;99.90
64796;DHT22;51229;51.980;6.722;2022-09-09T07:09:00;13.00;99.90
64796;DHT22;51229;51.980;6.722;2022-09-09T07:11:29;13.00;99.90
64796;DHT22;51229;51.980;6.722;2022-09-09T07:13:57;13.00;99.90
64796;DHT22;51229;51.980;6.722;2022-09-09T07:16:25;13.10;99.90
64796;DHT22;51229;51.980;6.722;2022-09-09T07:18:54;13.50;99.90
64796;DHT22;51229;51.980;6.722;2022-09-09T07:21:25;14.10;99.90
64796;DHT22;51229;51.980;6.722;2022-09-09T07:23:52;14.60;99.90
64796;DHT22;51229;51.980;6.722;2022-09-09T07:26:21;15.20;99.90
64796;DHT22;51229;51.980;6.722;2022-09-09T07:28:47;15.30;99.90
64796;DHT22;51229;51.980;6.722;2022-09-09T07:31:19;15.00;99.90
64796;DHT22;51229;51.980;6.722;2022-09-09T07:33:47;15.30;99.90
64796;DHT22;51229;51.980;6.722;2022-09-09T07:36:14;15.50;99.90
64796;DHT22;51229;51.980;6.722;2022-09-09T07:38:42;15.50;99.90
64796;DHT22;51229;51.980;6.722;2022-09-09T07:41:12;15.70;99.90
64796;DHT22;51229;51.980;6.722;2022-09-09T07:43:41;15.20;99.90
64796;DHT22;51229;51.980;6.722;2022-09-09T07:46:09;14.80;99.90
64796;DHT22;51229;51.980;6.722;2022-09-09T07:48:34;15.00;99.90
64796;DHT22;51229;51.980;6.722;2022-09-09T07:51:05;15.00;99.90
64796;DHT22;51229;51.980;6.722;2022-09-09T07:53:31;14.60;99.90
64796;DHT22;51229;51.980;6.722;2022-09-09T07:56:03;14.40;99.90
64796;DHT22;51229;51.980;6.722;2022-09-09T07:58:30;14.60;99.90
64796;DHT22;51229;51.980;6.722;2022-09-09T08:00:56;14.40;99.90
64796;DHT22;51229;51.980;6.722;2022-09-09T08:03:23;14.40;99.90
64796;DHT22;51229;51.980;6.722;2022-09-09T08:05:49;14.20;99.90
64796;DHT22;51229;51.980;6.722;2022-09-09T08:08:15;14.40;99.90
64796;DHT22;51229;51.980;6.722;2022-09-09T08:10:42;14.30;99.90
64796;DHT22;51229;51.980;6.722;2022-09-09T08:13:09;14.50;99.90
64796;DHT22;51229;51.980;6.722;2022-09-09T08:15:35;14.70;99.90
64796;DHT22;51229;51.980;6.722;2022-09-09T08:18:02;14.70;99.90
64796;DHT22;51229;51.980;6.722;2022-09-09T08:20:29;14.70;99.90
64796;DHT22;51229;51.980;6.722;2022-09-09T08:22:56;14.80;99.90
64796;DHT22;51229;51.980;6.722;2022-09-09T08:25:21;14.70;99.90
64796;DHT22;51229;51.980;6.722;2022-09-09T08:27:47;14.80;99.90
64796;DHT22;51229;51.980;6.722;2022-09-09T08:30:13;15.00;99.90
64796;DHT22;51229;51.980;6.722;2022-09-09T08:32:39;15.00;99.90
64796;DHT22;51229;51.980;6.722;2022-09-09T08:35:06;14.80;99.90
64796;DHT22;51229;51.980;6.722;2022-09-09T08:37:33;14.70;99.90
64796;DHT22;51229;51.980;6.722;2022-09-09T08:39:58;14.70;99.90
64796;DHT22;51229;51.980;6.722;2022-09-09T08:45:12;15.50;99.90
64796;DHT22;51229;51.980;6.722;2022-09-09T08:53:04;17.00;99.90
64796;DHT22;51229;51.980;6.722;2022-09-09T08:58:26;17.40;99.90
64796;DHT22;51229;51.980;6.722;2022-09-09T09:06:42;16.20;99.90
64796;DHT22;51229;51.980;6.722;2022-09-09T09:09:36;16.40;99.90
64796;DHT22;51229;51.980;6.722;2022-09-09T09:12:21;16.00;99.90
64796;DHT22;51229;51.980;6.722;2022-09-09T09:14:49;16.10;99.90
64796;DHT22;51229;51.980;6.722;2022-09-09T09:17:19;16.20;99.90
64796;DHT22;51229;51.980;6.722;2022-09-09T09:19:47;16.30;99.90
64796;DHT22;51229;51.980;6.722;2022-09-09T09:30:39;16.90;99.90
64796;DHT22;51229;51.980;6.722;2022-09-09T09:33:16;18.60;99.90
64796;DHT22;51229;51.980;6.722;2022-09-09T09:35:43;18.80;99.90
64796;DHT22;51229;51.980;6.722;2022-09-09T09:38:21;18.90;99.90
64796;DHT22;51229;51.980;6.722;2022-09-09T09:40:59;19.30;99.90
64796;DHT22;51229;51.980;6.722;2022-09-09T09:43:28;19.00;99.90
64796;DHT22;51229;51.980;6.722;2022-09-09T09:45:57;19.30;99.90
64796;DHT22;51229;51.980;6.722;2022-09-09T09:48:25;19.90;99.90
64796;DHT22;51229;51.980;6.722;2022-09-09T09:53:33;18.20;99.90
64796;DHT22;51229;51.980;6.722;2022-09-09T09:56:02;17.40;99.90
64796;DHT22;51229;51.980;6.722;2022-09-09T09:58:52;17.30;99.90
64796;DHT22;51229;51.980;6.722;2022-09-09T10:01:38;17.20;99.90
64796;DHT22;51229;51.980;6.722;2022-09-09T10:04:18;17.50;99.90
64796;DHT22;51229;51.980;6.722;2022-09-09T10:06:46;17.90;99.90
64796;DHT22;51229;51.980;6.722;2022-09-09T10:09:22;18.10;99.90
64796;DHT22;51229;51.980;6.722;2022-09-09T10:14:52;18.30;99.90
64796;DHT22;51229;51.980;6.722;2022-09-09T10:17:38;18.50;99.90
64796;DHT22;51229;51.980;6.722;2022-09-09T10:22:51;21.60;98.10
64796;DHT22;51229;51.980;6.722;2022-09-09T10:25:32;21.50;96.70
64796;DHT22;51229;51.980;6.722;2022-09-09T10:28:17;20.30;98.60
64796;DHT22;51229;51.980;6.722;2022-09-09T10:33:27;19.30;99.90
64796;DHT22;51229;51.980;6.722;2022-09-09T10:36:03;19.10;99.90
64796;DHT22;51229;51.980;6.722;2022-09-09T10:38:40;18.90;99.90
64796;DHT22;51229;51.980;6.722;2022-09-09T10:41:35;18.70;99.90
64796;DHT22;51229;51.980;6.722;2022-09-09T10:44:38;19.30;99.90
64796;DHT22;51229;51.980;6.722;2022-09-09T10:47:39;18.60;99.90
64796;DHT22;51229;51.980;6.722;2022-09-09T10:53:08;18.70;99.90
64796;DHT22;51229;51.980;6.722;2022-09-09T10:55:45;18.20;99.90
64796;DHT22;51229;51.980;6.722;2022-09-09T10:58:58;18.40;99.90
64796;DHT22;51229;51.980;6.722;2022-09-09T11:01:41;18.10;99.90
64796;DHT22;51229;51.980;6.722;2022-09-09T11:04:34;18.40;99.90
64796;DHT22;51229;51.980;6.722;2022-09-09T11:07:08;18.00;99.90
64796;DHT22;51229;51.980;6.722;2022-09-09T11:09:41;18.20;99.90
64796;DHT22;51229;51.980;6.722;2022-09-09T11:12:13;18.20;99.90
64796;DHT22;51229;51.980;6.722;2022-09-09T11:14:43;17.80;99.90
64796;DHT22;51229;51.980;6.722;2022-09-09T11:17:18;17.80;99.90
64796;DHT22;51229;51.980;6.722;2022-09-09T11:19:44;17.50;99.90
64796;DHT22;51229;51.980;6.722;2022-09-09T11:22:37;17.60;99.90
64796;DHT22;51229;51.980;6.722;2022-09-09T11:25:23;17.60;99.90
64796;DHT22;51229;51.980;6.722;2022-09-09T11:30:45;17.60;99.90
64796;DHT22;51229;51.980;6.722;2022-09-09T11:36:26;17.40;99.90
64796;DHT22;51229;51.980;6.722;2022-09-09T11:39:28;17.40;99.90
64796;DHT22;51229;51.980;6.722;2022-09-09T11:41:47;18.00;99.90
64796;DHT22;51229;51.980;6.722;2022-09-09T11:44:18;18.20;99.90
64796;DHT22;51229;51.980;6.722;2022-09-09T11:46:50;17.60;99.90
64796;DHT22;51229;51.980;6.722;2022-09-09T11:49:39;17.80;99.90
64796;DHT22;51229;51.980;6.722;2022-09-09T11:52:20;18.00;99.90
64796;DHT22;51229;51.980;6.722;2022-09-09T11:54:48;17.70;99.90
64796;DHT22;51229;51.980;6.722;2022-09-09T11:57:35;17.80;99.90
64796;DHT22;51229;51.980;6.722;2022-09-09T12:00:02;18.00;99.90
64796;DHT22;51229;51.980;6.722;2022-09-09T12:02:48;18.10;99.90
64796;DHT22;51229;51.980;6.722;2022-09-09T12:05:16;17.70;99.90
64796;DHT22;51229;51.980;6.722;2022-09-09T12:07:55;17.60;99.90
64796;DHT22;51229;51.980;6.722;2022-09-09T12:10:35;17.40;99.90
64796;DHT22;51229;51.980;6.722;2022-09-09T12:13:20;17.00;99.90
64796;DHT22;51229;51.980;6.722;2022-09-09T12:15:49;17.20;99.90
64796;DHT22;51229;51.980;6.722;2022-09-09T12:18:23;17.40;99.90
64796;DHT22;51229;51.980;6.722;2022-09-09T12:21:32;17.30;99.90
64796;DHT22;51229;51.980;6.722;2022-09-09T12:23:52;17.40;99.90
64796;DHT22;51229;51.980;6.722;2022-09-09T12:31:46;16.80;99.90
64796;DHT22;51229;51.980;6.722;2022-09-09T12:34:43;16.70;99.90
64796;DHT22;51229;51.980;6.722;2022-09-09T12:37:33;16.60;99.90
64796;DHT22;51229;51.980;6.722;2022-09-09T12:40:18;17.20;99.90
64796;DHT22;51229;51.980;6.722;2022-09-09T12:42:44;17.10;99.90
64796;DHT22;51229;51.980;6.722;2022-09-09T12:45:36;16.50;99.90
64796;DHT22;51229;51.980;6.722;2022-09-09T12:48:10;16.70;99.90
64796;DHT22;51229;51.980;6.722;2022-09-09T12:50:49;16.90;99.90
64796;DHT22;51229;51.980;6.722;2022-09-09T12:53:30;17.10;99.90
64796;DHT22;51229;51.980;6.722;2022-09-09T12:55:59;15.80;99.90
64796;DHT22;51229;51.980;6.722;2022-09-09T12:58:26;15.40;99.90
64796;DHT22;51229;51.980;6.722;2022-09-09T13:00:55;15.60;99.90
64796;DHT22;51229;51.980;6.722;2022-09-09T13:03:26;15.80;99.90
64796;DHT22;51229;51.980;6.722;2022-09-09T13:05:53;15.40;99.90
64796;DHT22;51229;51.980;6.722;2022-09-09T13:08:19;15.20;99.90
64796;DHT22;51229;51.980;6.722;2022-09-09T13:11:04;15.00;99.90
64796;DHT22;51229;51.980;6.722;2022-09-09T13:13:40;15.60;99.90
64796;DHT22;51229;51.980;6.722;2022-09-09T13:16:22;15.80;99.90
64796;DHT22;51229;51.980;6.722;2022-09-09T13:18:49;15.60;99.90
64796;DHT22;51229;51.980;6.722;2022-09-09T13:21:15;15.30;99.90
64796;DHT22;51229;51.980;6.722;2022-09-09T13:23:41;15.20;99.90
64796;DHT22;51229;51.980;6.722;2022-09-09T13:26:22;15.10;99.90
64796;DHT22;51229;51.980;6.722;2022-09-09T13:28:48;15.00;99.90
64796;DHT22;51229;51.980;6.722;2022-09-09T13:31:29;14.70;99.90
64796;DHT22;51229;51.980;6.722;2022-09-09T13:33:55;14.70;99.90
64796;DHT22;51229;51.980;6.722;2022-09-09T13:36:30;14.80;99.90
64796;DHT22;51229;51.980;6.722;2022-09-09T13:39:00;15.20;99.90
64796;DHT22;51229;51.980;6.722;2022-09-09T13:41:33;14.90;99.90
64796;DHT22;51229;51.980;6.722;2022-09-09T13:44:01;15.80;99.90
64796;DHT22;51229;51.980;6.722;2022-09-09T13:46:34;15.60;99.90
64796;DHT22;51229;51.980;6.722;2022-09-09T13:54:06;16.00;99.90
64796;DHT22;51229;51.980;6.722;2022-09-09T13:56:35;16.80;99.90
64796;DHT22;51229;51.980;6.722;2022-09-09T13:59:02;16.80;99.90
64796;DHT22;51229;51.980;6.722;2022-09-09T14:01:28;16.80;99.90
64796;DHT22;51229;51.980;6.722;2022-09-09T14:03:54;17.00;99.90
64796;DHT22;51229;51.980;6.722;2022-09-09T14:06:20;16.70;99.90
64796;DHT22;51229;51.980;6.722;2022-09-09T14:08:49;17.00;99.90
64796;DHT22;51229;51.980;6.722;2022-09-09T14:11:15;17.20;99.90
64796;DHT22;51229;51.980;6.722;2022-09-09T14:13:41;17.00;99.90
64796;DHT22;51229;51.980;6.722;2022-09-09T14:16:07;17.10;99.90
64796;DHT22;51229;51.980;6.722;2022-09-09T14:18:32;17.10;99.90
64796;DHT22;51229;51.980;6.722;2022-09-09T14:20:59;16.90;99.90
64796;DHT22;51229;51.980;6.722;2022-09-09T14:23:25;16.40;99.90
64796;DHT22;51229;51.980;6.722;2022-09-09T14:25:51;16.50;99.90
64796;DHT22;51229;51.980;6.722;2022-09-09T14:28:17;16.70;99.90
64796;DHT22;51229;51.980;6.722;2022-09-09T14:30:43;16.90;99.90
64796;DHT22;51229;51.980;6.722;2022-09-09T14:33:11;17.00;99.90
64796;DHT22;51229;51.980;6.722;2022-09-09T14:35:38;17.00;99.90
64796;DHT22;51229;51.980;6.722;2022-09-09T14:38:04;17.20;99.90
64796;DHT22;51229;51.980;6.722;2022-09-09T14:40:30;17.30;99.90
64796;DHT22;51229;51.980;6.722;2022-09-09T14:42:56;17.10;99.90
64796;DHT22;51229;51.980;6.722;2022-09-09T14:45:23;17.50;99.90
64796;DHT22;51229;51.980;6.722;2022-09-09T14:47:50;17.20;99.90
64796;DHT22;51229;51.980;6.722;2022-09-09T14:50:17;17.00;99.90
64796;DHT22;51229;51.980;6.722;2022-09-09T14:52:42;17.20;99.90
64796;DHT22;51229;51.980;6.722;2022-09-09T14:55:08;17.10;99.90
64796;DHT22;51229;51.980;6.722;2022-09-09T14:57:34;16.90;99.90
64796;DHT22;51229;51.980;6.722;2022-09-09T15:00:02;17.10;99.90
64796;DHT22;51229;51.980;6.722;2022-09-09T15:02:29;17.00;99.90
64796;DHT22;51229;51.980;6.722;2022-09-09T15:04:55;17.20;99.90
64796;DHT22;51229;51.980;6.722;2022-09-09T15:07:24;17.20;99.90
64796;DHT22;51229;51.980;6.722;2022-09-09T15:09:49;16.80;99.90
64796;DHT22;51229;51.980;6.722;2022-09-09T15:12:15;16.90;99.90
64796;DHT22;51229;51.980;6.722;2022-09-09T15:14:44;17.20;99.90
64796;DHT22;51229;51.980;6.722;2022-09-09T15:17:10;16.80;99.90
64796;DHT22;51229;51.980;6.722;2022-09-09T15:19:37;16.50;99.90
64796;DHT22;51229;51.980;6.722;2022-09-09T15:22:04;16.60;99.90
64796;DHT22;51229;51.980;6.722;2022-09-09T15:24:31;16.20;99.90
64796;DHT22;51229;51.980;6.722;2022-09-09T15:26:57;16.20;99.90
64796;DHT22;51229;51.980;6.722;2022-09-09T15:29:24;16.40;99.90
64796;DHT22;51229;51.980;6.722;2022-09-09T15:31:50;16.30;99.90
64796;DHT22;51229;51.980;6.722;2022-09-09T15:34:15;16.50;99.90
64796;DHT22;51229;51.980;6.722;2022-09-09T15:36:43;16.60;99.90
64796;DHT22;51229;51.980;6.722;2022-09-09T15:39:14;16.50;99.90
64796;DHT22;51229;51.980;6.722;2022-09-09T15:41:47;16.50;99.90
64796;DHT22;51229;51.980;6.722;2022-09-09T15:44:13;16.40;99.90
64796;DHT22;51229;51.980;6.722;2022-09-09T15:46:45;16.40;99.90
64796;DHT22;51229;51.980;6.722;2022-09-09T15:51:45;16.40;99.90
64796;DHT22;51229;51.980;6.722;2022-09-09T15:54:13;16.80;99.90
64796;DHT22;51229;51.980;6.722;2022-09-09T15:56:41;16.80;99.90
64796;DHT22;51229;51.980;6.722;2022-09-09T15:59:07;16.60;99.90
64796;DHT22;51229;51.980;6.722;2022-09-09T16:01:32;16.80;99.90
64796;DHT22;51229;51.980;6.722;2022-09-09T16:03:59;16.80;99.90
64796;DHT22;51229;51.980;6.722;2022-09-09T16:06:26;16.30;99.90
64796;DHT22;51229;51.980;6.722;2022-09-09T16:08:54;16.60;99.90
64796;DHT22;51229;51.980;6.722;2022-09-09T16:11:28;16.40;99.90
64796;DHT22;51229;51.980;6.722;2022-09-09T16:13:55;16.20;99.90
64796;DHT22;51229;51.980;6.722;2022-09-09T16:16:26;16.70;99.90
64796;DHT22;51229;51.980;6.722;2022-09-09T16:18:55;16.60;99.90
64796;DHT22;51229;51.980;6.722;2022-09-09T16:21:36;16.40;99.90
64796;DHT22;51229;51.980;6.722;2022-09-09T16:24:04;16.60;99.90
64796;DHT22;51229;51.980;6.722;2022-09-09T16:26:32;16.60;99.90
64796;DHT22;51229;51.980;6.722;2022-09-09T16:28:59;16.40;99.90
64796;DHT22;51229;51.980;6.722;2022-09-09T16:31:26;16.40;99.90
64796;DHT22;51229;51.980;6.722;2022-09-09T16:33:53;16.50;99.90
64796;DHT22;51229;51.980;6.722;2022-09-09T16:36:30;16.10;99.90
64796;DHT22;51229;51.980;6.722;2022-09-09T16:39:02;16.20;99.90
64796;DHT22;51229;51.980;6.722;2022-09-09T16:41:32;16.10;99.90
64796;DHT22;51229;51.980;6.722;2022-09-09T16:44:01;15.70;99.90
64796;DHT22;51229;51.980;6.722;2022-09-09T16:46:29;15.60;99.90
64796;DHT22;51229;51.980;6.722;2022-09-09T16:48:59;15.90;99.90
64796;DHT22;51229;51.980;6.722;2022-09-09T16:51:28;15.80;99.90
64796;DHT22;51229;51.980;6.722;2022-09-09T16:53:54;15.70;99.90
64796;DHT22;51229;51.980;6.722;2022-09-09T16:56:25;15.50;99.90
64796;DHT22;51229;51.980;6.722;2022-09-09T16:58:54;15.30;99.90
64796;DHT22;51229;51.980;6.722;2022-09-09T17:01:24;15.10;99.90
64796;DHT22;51229;51.980;6.722;2022-09-09T17:03:54;15.10;99.90
64796;DHT22;51229;51.980;6.722;2022-09-09T17:06:21;14.80;99.90
64796;DHT22;51229;51.980;6.722;2022-09-09T17:08:46;15.00;99.90
64796;DHT22;51229;51.980;6.722;2022-09-09T17:11:18;14.80;99.90
64796;DHT22;51229;51.980;6.722;2022-09-09T17:13:47;15.50;99.90
64796;DHT22;51229;51.980;6.722;2022-09-09T17:16:15;15.70;99.90
64796;DHT22;51229;51.980;6.722;2022-09-09T17:18:41;15.20;99.90
64796;DHT22;51229;51.980;6.722;2022-09-09T17:21:09;15.30;99.90
64796;DHT22;51229;51.980;6.722;2022-09-09T17:23:36;15.40;99.90
64796;DHT22;51229;51.980;6.722;2022-09-09T17:26:05;15.80;99.90
64796;DHT22;51229;51.980;6.722;2022-09-09T17:28:34;15.70;99.90
64796;DHT22;51229;51.980;6.722;2022-09-09T17:31:00;15.50;99.90
64796;DHT22;51229;51.980;6.722;2022-09-09T17:33:28;15.40;99.90